createdAt,value
2018-03-24T00:00:21.996Z,2.73
2018-03-24T00:02:49.572Z,2.27
2018-03-24T00:05:17.158Z,1.50
2018-03-24T00:07:45.578Z,2.03
2018-03-24T00:10:13.214Z,1.60
2018-03-24T00:12:40.786Z,1.53
2018-03-24T00:15:08.466Z,1.40
2018-03-24T00:17:36.080Z,1.57
2018-03-24T00:20:04.504Z,1.70
2018-03-24T00:22:32.146Z,1.67
2018-03-24T00:24:59.714Z,1.60
2018-03-24T00:27:27.306Z,1.73
2018-03-24T00:29:54.896Z,2.20
2018-03-24T00:32:23.217Z,1.70
2018-03-24T00:34:50.834Z,1.80
2018-03-24T00:37:19.167Z,1.90
2018-03-24T00:39:46.754Z,1.17
2018-03-24T00:42:15.180Z,1.87
2018-03-24T00:44:42.810Z,1.77
2018-03-24T00:47:11.150Z,1.30
2018-03-24T00:49:38.933Z,2.00
2018-03-24T00:52:06.528Z,1.80
2018-03-24T00:54:34.162Z,2.03
2018-03-24T00:57:01.847Z,1.23
2018-03-24T00:59:30.177Z,1.43
2018-03-24T01:01:57.864Z,1.30
2018-03-24T01:04:26.924Z,1.23
2018-03-24T01:06:54.490Z,1.73
2018-03-24T01:09:22.127Z,1.23
2018-03-24T01:11:50.402Z,1.60
2018-03-24T01:14:18.121Z,2.00
2018-03-24T01:16:45.662Z,1.60
2018-03-24T01:19:13.239Z,1.93
2018-03-24T01:21:40.902Z,1.43
2018-03-24T01:24:08.649Z,1.60
2018-03-24T01:26:36.222Z,1.40
2018-03-24T01:29:03.788Z,1.87
2018-03-24T01:31:31.330Z,1.40
2018-03-24T01:33:58.903Z,1.90
2018-03-24T01:36:26.506Z,1.40
2018-03-24T01:38:54.243Z,1.40
2018-03-24T01:41:22.614Z,1.60
2018-03-24T01:43:50.962Z,1.10
2018-03-24T01:46:18.522Z,1.70
2018-03-24T01:48:46.132Z,1.90
2018-03-24T01:51:13.704Z,2.00
2018-03-24T01:53:53.036Z,1.53
2018-03-24T01:56:20.602Z,1.27
2018-03-24T01:58:48.180Z,1.63
2018-03-24T02:01:15.728Z,1.97
2018-03-24T02:03:43.294Z,1.67
2018-03-24T02:06:10.863Z,1.30
2018-03-24T02:08:38.459Z,1.57
2018-03-24T02:11:06.860Z,1.83
2018-03-24T02:13:35.358Z,1.50
2018-03-24T02:16:02.929Z,1.97
2018-03-24T02:18:30.527Z,1.20
2018-03-24T02:21:08.913Z,1.83
2018-03-24T02:23:36.472Z,1.17
2018-03-24T02:26:04.001Z,1.27
2018-03-24T02:28:31.787Z,1.37
2018-03-24T02:30:59.325Z,1.30
2018-03-24T02:33:26.906Z,0.97
2018-03-24T02:35:54.678Z,1.50
2018-03-24T02:38:22.242Z,1.10
2018-03-24T02:40:49.813Z,1.47
2018-03-24T02:43:17.367Z,1.77
2018-03-24T02:45:44.964Z,1.40
2018-03-24T02:48:13.344Z,1.00
2018-03-24T02:50:41.668Z,1.60
2018-03-24T02:53:09.273Z,1.70
2018-03-24T02:55:37.643Z,1.80
2018-03-24T02:58:05.314Z,1.23
2018-03-24T03:00:32.993Z,1.47
2018-03-24T03:03:01.314Z,1.50
2018-03-24T03:05:28.885Z,1.20
2018-03-24T03:07:56.450Z,1.20
2018-03-24T03:10:24.069Z,1.00
2018-03-24T03:12:51.615Z,1.37
2018-03-24T03:15:19.955Z,2.10
2018-03-24T03:17:49.007Z,1.83
2018-03-24T03:20:16.709Z,1.30
2018-03-24T03:22:44.267Z,1.97
2018-03-24T03:25:11.859Z,1.70
2018-03-24T03:27:40.201Z,1.20
2018-03-24T03:33:17.619Z,1.23
2018-03-24T03:35:45.221Z,1.90
2018-03-24T03:38:13.507Z,1.40
2018-03-24T03:40:41.089Z,1.67
2018-03-24T03:43:08.647Z,1.33
2018-03-24T03:45:36.249Z,1.60
2018-03-24T03:48:03.811Z,1.67
2018-03-24T03:50:31.414Z,1.20
2018-03-24T03:52:58.984Z,1.30
2018-03-24T03:55:26.575Z,1.20
2018-03-24T03:57:55.129Z,1.10
2018-03-24T04:00:22.731Z,1.50
2018-03-24T04:02:50.318Z,1.00
2018-03-24T04:05:17.871Z,1.30
2018-03-24T04:07:46.223Z,1.33
2018-03-24T04:10:13.834Z,1.00
2018-03-24T04:12:41.423Z,1.40
2018-03-24T04:15:08.989Z,1.20
2018-03-24T04:17:36.587Z,1.40
2018-03-24T04:20:04.907Z,1.20
2018-03-24T04:22:32.483Z,1.10
2018-03-24T04:25:00.045Z,1.37
2018-03-24T04:27:27.627Z,1.20
2018-03-24T04:29:55.177Z,1.60
2018-03-24T04:32:22.765Z,1.03
2018-03-24T04:34:51.278Z,1.13
2018-03-24T04:37:18.896Z,1.60
2018-03-24T04:39:46.526Z,1.20
2018-03-24T04:42:14.111Z,1.80
2018-03-24T04:44:41.687Z,1.03
2018-03-24T04:47:10.010Z,1.90
2018-03-24T04:49:37.589Z,1.27
2018-03-24T04:52:05.169Z,1.50
2018-03-24T04:54:33.604Z,2.10
2018-03-24T04:57:01.140Z,1.40
2018-03-24T04:59:28.726Z,1.47
2018-03-24T05:01:56.283Z,1.90
2018-03-24T05:04:23.917Z,1.13
2018-03-24T05:06:51.471Z,2.10
2018-03-24T05:09:19.166Z,1.73
2018-03-24T05:11:46.736Z,1.80
2018-03-24T05:14:14.304Z,1.63
2018-03-24T05:16:41.914Z,1.60
2018-03-24T05:19:09.509Z,1.73
2018-03-24T05:21:37.049Z,1.93
2018-03-24T05:24:04.630Z,1.50
2018-03-24T05:26:32.327Z,1.60
2018-03-24T05:28:59.945Z,1.70
2018-03-24T05:31:27.506Z,1.23
2018-03-24T05:33:55.082Z,1.53
2018-03-24T05:36:22.670Z,2.13
2018-03-24T05:38:50.229Z,1.27
2018-03-24T05:41:18.758Z,1.63
2018-03-24T05:43:46.304Z,1.67
2018-03-24T05:46:14.006Z,1.80
2018-03-24T05:48:41.616Z,1.70
2018-03-24T05:51:09.156Z,1.63
2018-03-24T05:53:36.841Z,1.93
2018-03-24T05:56:05.190Z,1.60
2018-03-24T05:58:32.770Z,1.43
2018-03-24T06:01:01.104Z,1.50
2018-03-24T06:03:28.650Z,1.40
2018-03-24T06:05:56.249Z,1.67
2018-03-24T06:08:23.870Z,1.23
2018-03-24T06:10:51.523Z,1.43
2018-03-24T06:13:19.122Z,1.20
2018-03-24T06:15:46.691Z,1.37
2018-03-24T06:18:14.244Z,1.67
2018-03-24T06:20:41.864Z,1.73
2018-03-24T06:23:09.439Z,1.83
2018-03-24T06:25:37.004Z,1.70
2018-03-24T06:28:04.626Z,1.57
2018-03-24T06:30:47.111Z,1.77
2018-03-24T06:33:14.801Z,1.23
2018-03-24T06:35:42.424Z,1.40
2018-03-24T06:38:10.794Z,2.03
2018-03-24T06:40:38.396Z,1.33
2018-03-24T06:43:06.072Z,1.87
2018-03-24T06:45:33.712Z,1.37
2018-03-24T06:48:02.028Z,2.30
2018-03-24T06:50:29.742Z,1.27
2018-03-24T06:52:58.058Z,1.50
2018-03-24T06:55:25.676Z,2.00
2018-03-24T06:57:53.384Z,1.50
2018-03-24T07:00:20.966Z,1.37
2018-03-24T07:02:48.570Z,1.67
2018-03-24T07:05:16.909Z,1.10
2018-03-24T07:07:44.645Z,1.70
2018-03-24T07:10:12.938Z,1.13
2018-03-24T07:12:40.533Z,8.47
2018-03-24T07:15:08.903Z,3.23
2018-03-24T07:17:36.600Z,1.30
2018-03-24T07:20:04.152Z,2.10
2018-03-24T07:22:32.600Z,1.90
2018-03-24T07:25:00.162Z,1.83
2018-03-24T07:27:27.743Z,2.00
2018-03-24T07:29:56.086Z,1.50
2018-03-24T07:32:23.632Z,1.70
2018-03-24T07:34:51.200Z,1.90
2018-03-24T07:37:18.764Z,2.20
2018-03-24T07:39:46.350Z,1.20
2018-03-24T07:42:14.690Z,2.13
2018-03-24T07:44:42.402Z,1.90
2018-03-24T07:47:10.734Z,2.63
2018-03-24T07:49:38.340Z,2.23
2018-03-24T07:52:06.685Z,2.30
2018-03-24T07:54:34.273Z,3.00
2018-03-24T07:57:02.588Z,2.93
2018-03-24T07:59:30.174Z,2.27
2018-03-24T08:01:57.730Z,2.10
2018-03-24T08:04:25.315Z,2.20
2018-03-24T08:06:52.919Z,2.27
2018-03-24T08:09:20.482Z,2.20
2018-03-24T08:11:48.293Z,3.20
2018-03-24T08:14:15.889Z,2.20
2018-03-24T08:16:44.245Z,2.20
2018-03-24T08:19:11.804Z,1.53
2018-03-24T08:21:39.513Z,2.10
2018-03-24T08:24:07.080Z,2.43
2018-03-24T08:26:34.661Z,2.53
2018-03-24T08:29:02.298Z,2.33
2018-03-24T08:31:30.061Z,2.83
2018-03-24T08:33:57.759Z,2.00
2018-03-24T08:36:25.307Z,3.10
2018-03-24T08:38:52.879Z,2.57
2018-03-24T08:41:20.470Z,2.60
2018-03-24T08:43:48.843Z,2.93
2018-03-24T08:46:17.411Z,1.97
2018-03-24T08:48:45.027Z,2.17
2018-03-24T08:51:12.613Z,2.63
2018-03-24T08:53:40.356Z,3.67
2018-03-24T08:56:07.931Z,2.03
2018-03-24T08:58:35.613Z,2.30
2018-03-24T09:01:03.171Z,2.30
2018-03-24T09:03:30.933Z,3.27
2018-03-24T09:05:58.435Z,2.50
2018-03-24T09:08:26.037Z,2.37
2018-03-24T09:10:53.686Z,3.53
2018-03-24T09:13:21.290Z,2.73
2018-03-24T09:15:49.831Z,1.80
2018-03-24T09:18:17.431Z,2.07
2018-03-24T09:20:45.741Z,1.73
2018-03-24T09:23:13.313Z,2.20
2018-03-24T09:25:41.004Z,1.30
2018-03-24T09:28:08.588Z,1.13
2018-03-24T09:30:36.301Z,1.30
2018-03-24T09:33:03.871Z,1.30
2018-03-24T09:35:31.572Z,1.27
2018-03-24T09:37:59.137Z,1.43
2018-03-24T09:40:27.623Z,1.10
2018-03-24T09:42:55.952Z,0.90
2018-03-24T09:45:23.739Z,1.67
2018-03-24T09:47:51.479Z,1.27
2018-03-24T09:50:19.037Z,1.37
2018-03-24T09:52:46.745Z,1.20
2018-03-24T09:55:14.237Z,2.20
2018-03-24T09:57:41.846Z,1.27
2018-03-24T10:00:09.576Z,1.37
2018-03-24T10:02:37.130Z,1.87
2018-03-24T10:05:04.704Z,1.50
2018-03-24T10:07:32.297Z,1.70
2018-03-24T10:09:59.834Z,1.80
2018-03-24T10:12:27.414Z,1.20
2018-03-24T10:14:55.728Z,1.40
2018-03-24T10:17:23.508Z,1.33
2018-03-24T10:19:51.242Z,1.33
2018-03-24T10:25:22.175Z,1.60
2018-03-24T10:27:50.510Z,2.07
2018-03-24T10:30:18.072Z,2.10
2018-03-24T10:32:45.670Z,1.67
2018-03-24T10:35:13.270Z,1.87
2018-03-24T10:37:46.434Z,1.70
2018-03-24T10:40:14.046Z,2.50
2018-03-24T10:42:42.530Z,1.70
2018-03-24T10:45:10.159Z,2.37
2018-03-24T10:47:38.490Z,1.77
2018-03-24T10:50:06.116Z,1.70
2018-03-24T10:52:33.727Z,1.40
2018-03-24T10:55:01.352Z,1.80
2018-03-24T10:57:28.936Z,1.50
2018-03-24T10:59:56.654Z,1.40
2018-03-24T11:02:24.246Z,2.37
2018-03-24T11:04:51.964Z,1.87
2018-03-24T11:07:20.318Z,2.30
2018-03-24T11:09:48.785Z,2.73
2018-03-24T11:12:16.342Z,2.50
2018-03-24T11:14:43.940Z,2.70
2018-03-24T11:17:11.502Z,1.80
2018-03-24T11:19:39.102Z,2.87
2018-03-24T11:22:06.754Z,2.27
2018-03-24T11:24:34.320Z,3.07
2018-03-24T11:27:01.868Z,2.57
2018-03-24T11:29:29.446Z,2.50
2018-03-24T11:31:56.994Z,1.50
2018-03-24T11:34:24.590Z,2.30
2018-03-24T11:36:52.116Z,2.10
2018-03-24T11:39:19.879Z,1.67
2018-03-24T11:41:47.847Z,1.10
2018-03-24T11:44:15.466Z,1.37
2018-03-24T11:46:43.806Z,1.20
2018-03-24T11:49:11.426Z,1.47
2018-03-24T11:51:39.201Z,1.20
2018-03-24T11:54:07.030Z,1.50
2018-03-24T11:56:34.592Z,2.13
2018-03-24T11:59:03.162Z,1.60
2018-03-24T12:01:30.702Z,19.77
2018-03-24T12:03:58.294Z,9.97
2018-03-24T12:06:25.846Z,8.00
2018-03-24T12:08:53.492Z,6.17
2018-03-24T12:11:22.602Z,5.87
2018-03-24T12:13:50.192Z,3.80
2018-03-24T12:16:17.751Z,3.27
2018-03-24T12:18:45.330Z,3.77
2018-03-24T12:21:12.880Z,2.70
2018-03-24T12:23:40.435Z,2.60
2018-03-24T12:26:08.183Z,4.43
2018-03-24T12:28:36.552Z,5.17
2018-03-24T12:31:05.073Z,4.53
2018-03-24T12:33:32.598Z,2.83
2018-03-24T12:36:00.970Z,3.10
2018-03-24T12:38:29.294Z,3.07
2018-03-24T12:40:56.883Z,2.67
2018-03-24T12:43:24.520Z,2.50
2018-03-24T12:45:52.096Z,2.50
2018-03-24T12:48:19.666Z,2.30
2018-03-24T12:50:47.223Z,2.47
2018-03-24T12:53:14.798Z,1.60
2018-03-24T12:55:42.406Z,1.20
2018-03-24T12:58:10.276Z,0.93
2018-03-24T13:00:37.834Z,0.80
2018-03-24T13:03:05.436Z,1.33
2018-03-24T13:05:33.289Z,1.10
2018-03-24T13:08:00.894Z,1.20
2018-03-24T13:10:29.397Z,1.07
2018-03-24T13:12:57.023Z,1.17
2018-03-24T13:15:24.751Z,1.00
2018-03-24T13:17:52.459Z,1.37
2018-03-24T13:20:20.932Z,0.70
2018-03-24T13:22:48.598Z,1.87
2018-03-24T13:25:16.942Z,1.07
2018-03-24T13:27:44.529Z,1.17
2018-03-24T13:30:12.892Z,1.27
2018-03-24T13:32:40.488Z,1.00
2018-03-24T13:35:08.040Z,1.00
2018-03-24T13:37:36.527Z,0.83
2018-03-24T13:40:04.143Z,1.00
2018-03-24T13:42:31.711Z,1.03
2018-03-24T13:44:59.309Z,0.87
2018-03-24T13:47:27.665Z,1.17
2018-03-24T13:49:55.243Z,1.03
2018-03-24T13:52:22.837Z,1.03
2018-03-24T13:54:50.397Z,1.43
2018-03-24T13:57:17.967Z,1.03
2018-03-24T13:59:45.563Z,0.90
2018-03-24T14:02:13.222Z,1.23
2018-03-24T14:04:40.825Z,0.93
2018-03-24T14:07:08.391Z,1.50
2018-03-24T14:09:36.753Z,0.80
2018-03-24T14:12:04.332Z,0.70
2018-03-24T14:14:31.931Z,1.10
2018-03-24T14:16:59.527Z,0.70
2018-03-24T14:19:27.823Z,0.80
2018-03-24T14:21:55.507Z,0.93
2018-03-24T14:24:23.074Z,0.80
2018-03-24T14:26:50.691Z,0.70
2018-03-24T14:29:18.402Z,1.00
2018-03-24T14:31:46.038Z,0.90
2018-03-24T14:34:13.595Z,0.93
2018-03-24T14:36:41.192Z,0.80
2018-03-24T14:39:08.777Z,0.77
2018-03-24T14:41:36.309Z,1.10
2018-03-24T14:44:03.901Z,1.20
2018-03-24T14:46:32.203Z,0.90
2018-03-24T14:48:59.795Z,0.97
2018-03-24T14:51:27.496Z,0.70
2018-03-24T14:53:56.059Z,1.00
2018-03-24T14:56:23.622Z,0.90
2018-03-24T14:58:51.282Z,1.10
2018-03-24T15:01:18.815Z,1.50
2018-03-24T15:03:46.409Z,1.00
2018-03-24T15:06:14.125Z,1.17
2018-03-24T15:08:42.243Z,1.00
2018-03-24T15:11:09.815Z,1.77
2018-03-24T15:13:39.586Z,1.23
2018-03-24T15:16:07.497Z,0.97
2018-03-24T15:18:35.902Z,1.23
2018-03-24T15:21:03.747Z,0.80
2018-03-24T15:23:32.109Z,0.90
2018-03-24T15:25:59.693Z,1.00
2018-03-24T15:28:28.030Z,0.70
2018-03-24T15:31:07.554Z,0.70
2018-03-24T15:33:47.143Z,0.90
2018-03-24T15:36:27.433Z,0.60
2018-03-24T15:38:54.998Z,0.90
2018-03-24T15:41:22.553Z,0.83
2018-03-24T15:43:50.129Z,1.37
2018-03-24T15:46:17.705Z,0.80
2018-03-24T15:48:45.275Z,0.60
2018-03-24T15:51:12.843Z,1.00
2018-03-24T15:53:40.437Z,0.70
2018-03-24T15:56:08.180Z,0.60
2018-03-24T15:58:35.748Z,1.03
2018-03-24T16:01:04.102Z,1.00
2018-03-24T16:03:31.684Z,0.80
2018-03-24T16:06:00.150Z,0.60
2018-03-24T16:08:28.466Z,0.63
2018-03-24T16:10:56.042Z,0.83
2018-03-24T16:13:23.593Z,0.60
2018-03-24T16:15:51.192Z,0.57
2018-03-24T16:18:18.800Z,0.80
2018-03-24T16:20:49.542Z,1.17
2018-03-24T16:23:23.528Z,0.60
2018-03-24T16:25:51.454Z,1.03
2018-03-24T16:28:19.014Z,0.73
2018-03-24T16:30:46.812Z,0.67
2018-03-24T16:33:15.273Z,1.37
2018-03-24T16:35:42.775Z,0.70
2018-03-24T16:38:10.450Z,0.80
2018-03-24T16:40:38.040Z,0.70
2018-03-24T16:43:05.626Z,0.73
2018-03-24T16:45:35.430Z,1.00
2018-03-24T16:48:04.479Z,0.90
2018-03-24T16:50:32.060Z,0.67
2018-03-24T16:52:59.797Z,1.00
2018-03-24T16:55:27.367Z,1.23
2018-03-24T16:57:54.940Z,1.13
2018-03-24T17:00:22.585Z,1.63
2018-03-24T17:02:50.167Z,1.60
2018-03-24T17:05:17.734Z,1.80
2018-03-24T17:07:45.321Z,2.20
2018-03-24T17:10:13.649Z,1.63
2018-03-24T17:12:41.221Z,1.60
2018-03-24T17:15:08.811Z,2.03
2018-03-24T17:17:36.372Z,1.90
2018-03-24T17:20:04.759Z,3.40
2018-03-24T17:22:32.351Z,2.50
2018-03-24T17:25:00.008Z,2.20
2018-03-24T17:27:27.551Z,4.50
2018-03-24T17:29:55.093Z,3.03
2018-03-24T17:32:22.677Z,2.37
2018-03-24T17:34:50.250Z,2.63
2018-03-24T17:37:17.944Z,2.50
2018-03-24T17:39:45.499Z,3.90
2018-03-24T17:42:13.081Z,13.47
2018-03-24T17:44:40.795Z,33.73
2018-03-24T17:47:08.371Z,76.03
2018-03-24T17:49:36.016Z,45.97
2018-03-24T17:52:04.317Z,22.53
2018-03-24T17:54:31.910Z,15.33
2018-03-24T17:56:59.497Z,14.80
2018-03-24T17:59:27.092Z,14.40
2018-03-24T18:01:54.645Z,14.80
2018-03-24T18:04:22.227Z,14.33
2018-03-24T18:06:49.787Z,15.97
2018-03-24T18:09:17.381Z,15.47
2018-03-24T18:11:45.733Z,15.70
2018-03-24T18:14:13.308Z,15.37
2018-03-24T18:16:40.895Z,14.63
2018-03-24T18:19:08.483Z,13.40
2018-03-24T18:21:36.061Z,13.73
2018-03-24T18:24:03.866Z,14.67
2018-03-24T18:26:32.198Z,13.87
2018-03-24T18:28:59.818Z,12.87
2018-03-24T18:31:27.374Z,13.53
2018-03-24T18:33:54.971Z,12.37
2018-03-24T18:36:22.544Z,12.50
2018-03-24T18:38:50.276Z,12.40
2018-03-24T18:41:17.901Z,11.33
2018-03-24T18:43:45.461Z,11.53
2018-03-24T18:46:13.797Z,10.80
2018-03-24T18:48:41.386Z,11.03
2018-03-24T18:51:08.997Z,9.87
2018-03-24T18:53:36.593Z,12.13
2018-03-24T18:56:04.236Z,9.97
2018-03-24T18:58:31.801Z,10.30
2018-03-24T19:00:59.383Z,10.00
2018-03-24T19:03:26.995Z,9.17
2018-03-24T19:05:54.587Z,10.93
2018-03-24T19:08:22.172Z,10.27
2018-03-24T19:10:49.802Z,9.57
2018-03-24T19:13:17.394Z,9.53
2018-03-24T19:15:44.952Z,8.10
2018-03-24T19:18:12.532Z,7.80
2018-03-24T19:20:40.120Z,8.70
2018-03-24T19:23:07.709Z,9.15
2018-03-24T19:25:35.287Z,8.07
2018-03-24T19:28:02.856Z,8.07
2018-03-24T19:30:30.414Z,7.73
2018-03-24T19:32:58.090Z,6.33
2018-03-24T19:35:26.406Z,6.37
2018-03-24T19:37:54.000Z,8.10
2018-03-24T19:40:21.580Z,8.57
2018-03-24T19:42:50.063Z,6.67
2018-03-24T19:45:17.879Z,6.50
2018-03-24T19:47:45.545Z,9.57
2018-03-24T19:50:13.157Z,6.63
2018-03-24T19:52:41.468Z,7.33
2018-03-24T19:55:09.084Z,8.50
2018-03-24T19:57:36.649Z,6.80
2018-03-24T20:00:05.065Z,6.33
2018-03-24T20:02:32.677Z,6.67
2018-03-24T20:05:00.240Z,6.63
2018-03-24T20:07:27.835Z,6.13
2018-03-24T20:09:56.211Z,6.20
2018-03-24T20:12:24.274Z,7.60
2018-03-24T20:14:52.640Z,6.50
2018-03-24T20:17:20.991Z,6.17
2018-03-24T20:19:48.580Z,5.23
2018-03-24T20:22:17.094Z,5.77
2018-03-24T20:24:44.687Z,6.40
2018-03-24T20:27:12.462Z,5.70
2018-03-24T20:29:40.024Z,4.63
2018-03-24T20:32:07.633Z,5.50
2018-03-24T20:34:35.230Z,5.03
2018-03-24T20:37:02.803Z,5.70
2018-03-24T20:39:30.372Z,5.00
2018-03-24T20:41:57.884Z,5.10
2018-03-24T20:44:25.495Z,5.20
2018-03-24T20:46:53.073Z,6.00
2018-03-24T20:49:21.398Z,5.17
2018-03-24T20:51:49.000Z,5.10
2018-03-24T20:54:17.380Z,5.37
2018-03-24T20:56:45.795Z,5.20
2018-03-24T20:59:13.382Z,5.50
2018-03-24T21:01:40.940Z,5.20
2018-03-24T21:04:08.542Z,6.37
2018-03-24T21:06:36.998Z,5.40
2018-03-24T21:09:04.575Z,5.13
2018-03-24T21:11:32.994Z,5.70
2018-03-24T21:14:00.781Z,5.30
2018-03-24T21:16:28.342Z,5.20
2018-03-24T21:18:56.684Z,5.03
2018-03-24T21:21:24.364Z,5.43
2018-03-24T21:23:51.905Z,4.63
2018-03-24T21:26:19.624Z,5.17
2018-03-24T21:28:47.294Z,4.83
2018-03-24T21:31:14.861Z,5.93
2018-03-24T21:33:42.403Z,4.97
2018-03-24T21:36:10.041Z,5.47
2018-03-24T21:38:37.598Z,5.93
2018-03-24T21:41:05.170Z,6.20
2018-03-24T21:43:32.778Z,6.03
2018-03-24T21:46:01.109Z,5.33
2018-03-24T21:48:28.690Z,4.90
2018-03-24T21:50:56.313Z,5.60
2018-03-24T21:53:23.868Z,6.37
2018-03-24T21:55:51.419Z,5.97
2018-03-24T21:58:18.991Z,6.40
2018-03-24T22:00:46.558Z,6.07
2018-03-24T22:03:14.144Z,6.50
2018-03-24T22:05:41.744Z,5.63
2018-03-24T22:08:09.404Z,6.30
2018-03-24T22:10:37.010Z,5.87
2018-03-24T22:13:04.760Z,8.38
2018-03-24T22:15:32.300Z,7.13
2018-03-24T22:18:00.095Z,8.80
2018-03-24T22:20:27.646Z,6.27
2018-03-24T22:22:55.216Z,7.37
2018-03-24T22:25:22.847Z,9.40
2018-03-24T22:27:50.460Z,8.10
2018-03-24T22:30:18.123Z,7.97
2018-03-24T22:32:45.819Z,9.27
2018-03-24T22:35:13.393Z,7.57
2018-03-24T22:37:41.025Z,8.77
2018-03-24T22:40:09.420Z,6.80
2018-03-24T22:42:37.027Z,7.73
2018-03-24T22:45:05.394Z,6.87
2018-03-24T22:47:33.036Z,7.50
2018-03-24T22:50:00.666Z,6.03
2018-03-24T22:52:29.094Z,6.57
2018-03-24T22:54:56.808Z,7.77
2018-03-24T22:57:25.428Z,6.67
2018-03-24T22:59:53.008Z,8.30
2018-03-24T23:02:20.601Z,7.17
2018-03-24T23:04:48.878Z,6.80
2018-03-24T23:07:17.329Z,8.60
2018-03-24T23:09:44.845Z,7.83
2018-03-24T23:12:12.390Z,7.47
2018-03-24T23:14:39.952Z,8.23
2018-03-24T23:17:07.508Z,7.90
2018-03-24T23:19:35.100Z,6.93
2018-03-24T23:22:02.649Z,8.40
2018-03-24T23:24:30.235Z,7.07
2018-03-24T23:26:57.804Z,7.90
2018-03-24T23:29:25.384Z,7.43
2018-03-24T23:31:52.972Z,7.00
2018-03-24T23:34:21.346Z,9.07
2018-03-24T23:36:48.883Z,8.20
2018-03-24T23:39:16.428Z,8.47
2018-03-24T23:41:45.033Z,8.07
2018-03-24T23:44:13.440Z,7.60
2018-03-24T23:46:41.174Z,6.83
2018-03-24T23:49:08.780Z,6.23
2018-03-24T23:51:37.257Z,6.60
2018-03-24T23:54:04.798Z,6.80
2018-03-24T23:56:32.547Z,5.87
2018-03-24T23:59:00.921Z,5.20
